KCLL/CLL METAR and TAF weather

Enter ICAO airport designator
Station Type Date Time Source
KCLL METAR 2018/10/16 14:42 UTC NOAA

KCLL 161442Z 35008KT 4SM RA BR SCT008 BKN020 OVC048 11/11 A3018 RMK AO2 P0010 T01060106


Station Type Date Time Source
KCLL Decoded METAR 2018/10/16 14:42 UTC NOAA

COLLEGE STN EASTERWOOD FIELD, TX, United States (KCLL) 30-35N 096-22W 96M
Oct 16, 2018 - 10:42 AM EDT / 2018.10.16 1442 UTC
Wind: from the N (350 degrees) at 9 MPH (8 KT):0
Visibility: 4 mile(s):0
Sky conditions: overcast
Weather: rain; mist
Precipitation last hour: 0.10 inches
Temperature: 51.1 F (10.6 C)
Dew Point: 51.1 F (10.6 C)
Relative Humidity: 100%
Pressure (altimeter): 30.18 in. Hg (1022 hPa)
ob: KCLL 161442Z 35008KT 4SM RA BR SCT008 BKN020 OVC048 11/11 A3018 RMK AO2 P0010 T01060106
cycle: 14

Station Type Date Time Source
KCLL TAF 2018/10/16 12:28 UTC NOAA

TAF KCLL 161126Z 1612/1712 34010KT 5SM -RA BR SCT009 OVC015
TEMPO 1612/1615 4SM -SHRA BR OVC009
FM161500 36012KT 6SM -RA BR BKN009 OVC015
FM161800 36011KT 6SM -RA BR OVC012
FM170300 36011KT 5SM -SHRA BR OVC008


Example: see airport list